Stations météo

réclame
Mon MeteoGroup
London/Gatwick, Grande-Bretagne (3776): Température de l'air & dewpoint: 16.10.2018 15:00:00 - 22.10.2018 15:00:00 (BST)London/Gatwick, Grande-Bretagne (3776): Vitesse du vent: 16.10.2018 15:00:00 - 22.10.2018 15:00:00 (BST)London/Gatwick, Grande-Bretagne (3776): Direction du vent: 16.10.2018 15:00:00 - 22.10.2018 15:00:00 (BST)London/Gatwick, Grande-Bretagne (3776): visibility: 16.10.2018 15:00:00 - 22.10.2018 15:00:00 (BST)
Date & Time tt [°C] td [°C] ff [km/h] ff [knt] dd vv [km]
22.10.2018 15:00:00 13,0 4,0 15 8 NNE 10
22.10.2018 14:00:00 13,0 3,0 22 12 NNE 10
22.10.2018 13:00:00 12,0 4,0 21 11 NNE 10
22.10.2018 12:00:00 12,0 3,0 24 13 NE 10
22.10.2018 11:00:00 11,0 3,0 26 14 NNE 10
22.10.2018 10:00:00 10,0 4,0 22 12 NNE 10
22.10.2018 09:00:00 9,0 4,0 13 7 NNE 10
22.10.2018 08:00:00 8,0 3,0 15 8 N 10
22.10.2018 07:00:00 8,0 3,0 16 9 N 10
22.10.2018 06:00:00 9,0 3,0 18 10 N 10
22.10.2018 05:00:00 10,0 5,0 21 11 NNE 10
22.10.2018 04:00:00 12,0 8,0 22 12 N 10
22.10.2018 03:00:00 12,0 8,0 18 10 N 10
22.10.2018 02:00:00 12,0 9,0 15 8 N 10
22.10.2018 01:00:00 12,0 10,0 16 9 N 10
22.10.2018 00:00:00 14,0 12,0 18 10 N 8
21.10.2018 23:00:00 16,0 12,0 18 10 NNW 10
21.10.2018 22:00:00 16,0 12,0 15 8 NNW 10
21.10.2018 21:00:00 15,0 11,0 9 5 NW 10
21.10.2018 20:00:00 12,0 10,0 4 2 - 10
21.10.2018 19:00:00 13,0 10,0 4 2 SW 10
21.10.2018 18:00:00 16,0 10,0 5 3 W 10
21.10.2018 17:00:00 18,0 10,0 13 7 WSW 10
21.10.2018 16:00:00 19,0 10,0 11 6 SW 10
21.10.2018 15:00:00 19,0 11,0 11 6 WSW 10
21.10.2018 14:00:00 19,0 11,0 13 7 WNW 10
21.10.2018 13:00:00 17,0 12,0 9 5 W 10
21.10.2018 12:00:00 16,0 12,0 8 4 W 10
21.10.2018 11:00:00 14,0 12,0 8 4 NW 10
21.10.2018 10:00:00 10,0 9,0 5 3 - 8
21.10.2018 09:00:00 8,0 8,0 2 1 S 4,0
21.10.2018 08:00:00 6,0 6,0 2 1 SSW 10
21.10.2018 07:00:00 6,0 6,0 2 1 S 2,4
21.10.2018 06:00:00 6,0 6,0 2 1 - 2,5
21.10.2018 05:00:00 7,0 7,0 2 1 - 1,2
21.10.2018 04:00:00 7,0 6,0 2 1 SW 2,0
21.10.2018 03:00:00 8,0 7,0 4 2 S 5
21.10.2018 02:00:00 9,0 8,0 2 1 SSW 5
21.10.2018 01:00:00 10,0 9,0 2 1 SSW 7
21.10.2018 00:00:00 10,0 10,0 2 1 W 8
20.10.2018 23:00:00 10,0 9,0 4 2 - 9
20.10.2018 22:00:00 10,0 9,0 4 2 - 10
20.10.2018 21:00:00 10,0 9,0 2 1 SSW 10
20.10.2018 20:00:00 11,0 9,0 2 1 - 10
20.10.2018 19:00:00 13,0 9,0 4 2 SW 10
20.10.2018 18:00:00 15,0 10,0 5 3 SSW 10
20.10.2018 17:00:00 16,0 10,0 8 4 SW 10
20.10.2018 16:00:00 17,0 10,0 11 6 WSW 10
20.10.2018 15:00:00 16,0 10,0 9 5 W 10
20.10.2018 14:00:00 16,0 10,0 9 5 W 10
20.10.2018 13:00:00 15,0 9,0 8 4 W 10
20.10.2018 12:00:00 15,0 9,0 4 2 - 10
20.10.2018 11:00:00 13,0 9,0 4 2 - 10
20.10.2018 10:00:00 9,0 7,0 4 2 - 10
20.10.2018 09:00:00 6,0 5,0 5 3 - 10
20.10.2018 08:00:00 4,0 3,0 5 3 - 10
20.10.2018 07:00:00 3,0 3,0 2 1 SSW 8
20.10.2018 06:00:00 4,0 3,0 2 1 WNW 9
20.10.2018 05:00:00 4,0 4,0 2 1 WNW 10
20.10.2018 04:00:00 5,0 4,0 2 1 - 10
20.10.2018 03:00:00 4,0 4,0 4 2 - 10
20.10.2018 02:00:00 5,0 5,0 4 2 S 10
20.10.2018 01:00:00 5,0 5,0 2 1 S 10
20.10.2018 00:00:00 6,0 5,0 2 1 SSE 10
19.10.2018 23:00:00 7,0 6,0 2 1 - 10
19.10.2018 22:00:00 7,0 7,0 4 2 - 10
19.10.2018 21:00:00 9,0 7,0 2 1 - 10
19.10.2018 20:00:00 9,0 7,0 5 3 SSW 10
19.10.2018 19:00:00 13,0 7,0 8 4 WNW 10
19.10.2018 18:00:00 14,0 7,0 9 5 NW 10
19.10.2018 17:00:00 15,0 7,0 9 5 - 10
19.10.2018 16:00:00 15,0 8,0 8 4 N 10
19.10.2018 15:00:00 15,0 9,0 8 4 NNW 10
19.10.2018 14:00:00 15,0 9,0 11 6 - 10
19.10.2018 13:00:00 14,0 8,0 9 5 - 10
19.10.2018 12:00:00 13,0 8,0 9 5 NNW 10
19.10.2018 11:00:00 12,0 8,0 8 4 NNW 10
19.10.2018 10:00:00 10,0 7,0 8 4 N 10
19.10.2018 09:00:00 8,0 7,0 5 3 - 10
19.10.2018 08:00:00 7,0 6,0 8 4 NNW 10
19.10.2018 07:00:00 6,0 5,0 4 2 - 10
19.10.2018 06:00:00 5,0 5,0 5 3 WNW 10
19.10.2018 05:00:00 6,0 5,0 2 1 SSW 10
19.10.2018 04:00:00 6,0 6,0 2 1 - 10
19.10.2018 03:00:00 6,0 5,0 4 2 - 10
19.10.2018 02:00:00 7,0 6,0 2 1 - 10
19.10.2018 01:00:00 6,0 6,0 2 1 E 10
19.10.2018 00:00:00 8,0 7,0 5 3 E 10
18.10.2018 23:00:00 8,0 6,0 4 2 - 10
18.10.2018 22:00:00 9,0 7,0 9 5 ENE 10
18.10.2018 21:00:00 9,0 7,0 9 5 ENE 10
18.10.2018 20:00:00 10,0 8,0 11 6 ENE 10
18.10.2018 19:00:00 12,0 8,0 8 4 E 10
18.10.2018 18:00:00 12,0 8,0 11 6 ENE 10
18.10.2018 17:00:00 14,0 9,0 15 8 ENE 10
18.10.2018 16:00:00 15,0 10,0 15 8 ENE 10
18.10.2018 15:00:00 15,0 10,0 15 8 NE 10
18.10.2018 14:00:00 16,0 10,0 16 9 NE 10
18.10.2018 13:00:00 16,0 10,0 16 9 NNE 10
18.10.2018 12:00:00 15,0 11,0 22 12 NE 10
18.10.2018 11:00:00 13,0 10,0 22 12 NNE 10
18.10.2018 10:00:00 12,0 10,0 16 9 NNE 10
18.10.2018 09:00:00 11,0 10,0 18 10 NE 9
18.10.2018 08:00:00 11,0 10,0 15 8 NE 10
18.10.2018 07:00:00 10,0 9,0 9 5 NE 10
18.10.2018 06:00:00 11,0 10,0 11 6 NNE 9
18.10.2018 05:00:00 12,0 10,0 9 5 NE 8
18.10.2018 04:00:00 11,0 10,0 8 4 NNE 7
18.10.2018 03:00:00 12,0 11,0 8 4 NNE 7
18.10.2018 02:00:00 13,0 12,0 9 5 NNE 8
18.10.2018 01:00:00 13,0 12,0 5 3 NNE 9
18.10.2018 00:00:00 14,0 13,0 8 4 NNE 10
17.10.2018 23:00:00 14,0 13,0 8 4 NNE 10
17.10.2018 22:00:00 14,0 13,0 8 4 NE 10
17.10.2018 21:00:00 14,0 13,0 9 5 - 10
17.10.2018 20:00:00 14,0 13,0 9 5 NNE 10
17.10.2018 19:00:00 14,0 14,0 8 4 N 10
17.10.2018 18:00:00 14,0 14,0 8 4 NNW 10
17.10.2018 17:00:00 14,0 14,0 4 2 - 5
17.10.2018 16:00:00 15,0 14,0 8 4 W 4,7
17.10.2018 15:00:00 15,0 14,0 5 3 - 8
17.10.2018 14:00:00 14,0 13,0 5 3 SW 10
17.10.2018 13:00:00 14,0 14,0 9 5 WSW 6
17.10.2018 12:00:00 14,0 14,0 8 4 SW 4,4
17.10.2018 11:00:00 13,0 13,0 5 3 - 2,5
17.10.2018 10:00:00 13,0 12,0 4 2 - 2,4
17.10.2018 09:00:00 12,0 11,0 5 3 - 10
17.10.2018 08:00:00 10,0 10,0 4 2 E 10
17.10.2018 07:00:00 8,0 8,0 4 2 - 10
17.10.2018 06:00:00 9,0 9,0 2 1 S 7
17.10.2018 05:00:00 10,0 10,0 2 1 E 9
17.10.2018 04:00:00 11,0 10,0 4 2 SW 10
17.10.2018 03:00:00 12,0 11,0 4 2 - 10
17.10.2018 02:00:00 12,0 11,0 4 2 S 10
17.10.2018 01:00:00 13,0 11,0 8 4 SSW 10
17.10.2018 00:00:00 13,0 12,0 8 4 SW 10
16.10.2018 23:00:00 14,0 12,0 8 4 SSW 10
16.10.2018 22:00:00 15,0 12,0 8 4 SW 10
16.10.2018 21:00:00 15,0 12,0 13 7 SW 10
16.10.2018 20:00:00 16,0 13,0 11 6 SSW 10
16.10.2018 19:00:00 16,0 14,0 9 5 S 9
16.10.2018 18:00:00 16,0 14,0 8 4 S 10
16.10.2018 17:00:00 16,0 14,0 9 5 S 10
16.10.2018 16:00:00 16,0 13,0 13 7 S 10
16.10.2018 15:00:00 17,0 14,0 15 8 SSW 10

tt = Température de l'air
td = dewpoint
ff = Vitesse du vent
dd = Direction du vent
vv = visibility

stations d'obs. à proximité